createdAt,value
2022-12-18T00:01:19.331Z,98
2022-12-18T00:06:24.504Z,98.5
2022-12-18T00:11:30.580Z,98.5
2022-12-18T00:16:36.738Z,98
2022-12-18T00:21:42.851Z,98
2022-12-18T00:26:48.944Z,97.5
2022-12-18T00:31:55.070Z,98
2022-12-18T00:37:01.200Z,96.5
2022-12-18T00:42:07.363Z,97
2022-12-18T00:47:13.445Z,97.5
2022-12-18T00:52:19.569Z,98
2022-12-18T00:57:25.680Z,98
2022-12-18T01:02:31.801Z,98
2022-12-18T01:07:37.933Z,99
2022-12-18T01:12:43.063Z,99.5
2022-12-18T01:17:49.174Z,98.5
2022-12-18T01:22:55.288Z,99.5
2022-12-18T01:28:01.426Z,99
2022-12-18T01:33:07.542Z,99.5
2022-12-18T01:38:13.668Z,99
2022-12-18T01:43:18.802Z,99.5
2022-12-18T01:48:23.938Z,98.5
2022-12-18T01:53:29.078Z,99
2022-12-18T01:58:34.215Z,99
2022-12-18T02:03:39.381Z,98
2022-12-18T02:08:44.493Z,98
2022-12-18T02:13:50.622Z,98
2022-12-18T02:18:56.742Z,99
2022-12-18T02:24:02.857Z,99
2022-12-18T02:29:08.984Z,99
2022-12-18T02:34:15.105Z,98
2022-12-18T02:39:21.221Z,98.5
2022-12-18T02:44:27.328Z,98
2022-12-18T02:49:33.456Z,98.5
2022-12-18T02:54:39.576Z,98.5
2022-12-18T02:59:45.698Z,98.5
2022-12-18T03:04:51.836Z,98.5
2022-12-18T03:09:57.938Z,98.5
2022-12-18T03:15:03.071Z,99
2022-12-18T03:20:09.192Z,99.5
2022-12-18T03:25:15.315Z,99.5
2022-12-18T03:30:21.441Z,99.5
2022-12-18T03:35:27.556Z,99
2022-12-18T03:40:33.685Z,99.5
2022-12-18T03:45:39.790Z,99.5
2022-12-18T03:50:44.945Z,99.5
2022-12-18T03:55:50.080Z,99.5
2022-12-18T04:00:56.244Z,99.5
2022-12-18T04:06:02.315Z,99.5
2022-12-18T04:11:08.431Z,99.5
2022-12-18T04:16:14.561Z,99.5
2022-12-18T04:21:20.681Z,99.5
2022-12-18T04:26:26.800Z,99.5
2022-12-18T04:31:32.979Z,99.5
2022-12-18T04:36:39.066Z,99.5
2022-12-18T04:41:45.160Z,99.5
2022-12-18T04:46:51.287Z,99.5
2022-12-18T04:51:57.400Z,99.5
2022-12-18T04:57:03.522Z,99.5
2022-12-18T05:02:08.665Z,99.5
2022-12-18T05:07:14.807Z,99.5
2022-12-18T05:12:20.900Z,99.5
2022-12-18T05:17:27.018Z,99.5
2022-12-18T05:22:33.135Z,99.5
2022-12-18T05:27:39.305Z,99.5
2022-12-18T05:32:45.377Z,99.5
2022-12-18T05:37:50.524Z,99.5
2022-12-18T05:48:01.775Z,99.5
2022-12-18T05:53:07.907Z,99.5
2022-12-18T05:58:14.015Z,99.5
2022-12-18T06:03:20.325Z,99.5
2022-12-18T06:08:26.255Z,99.5
2022-12-18T06:13:32.373Z,99.5
2022-12-18T06:18:38.506Z,99.5
2022-12-18T06:23:44.620Z,99.5
2022-12-18T06:28:50.756Z,99.5
2022-12-18T06:33:56.859Z,99
2022-12-18T06:39:02.977Z,99.5
2022-12-18T06:44:09.092Z,99.5
2022-12-18T06:49:14.232Z,98.5
2022-12-18T06:54:20.363Z,99
2022-12-18T06:59:26.490Z,98.5
2022-12-18T07:04:32.592Z,98.5
2022-12-18T07:09:38.787Z,99
2022-12-18T07:14:44.836Z,98
2022-12-18T07:19:51.019Z,98
2022-12-18T07:24:57.153Z,97.5
2022-12-18T07:30:02.232Z,98.5
2022-12-18T07:35:07.375Z,98
2022-12-18T07:40:12.509Z,98
2022-12-18T07:45:17.637Z,97.5
2022-12-18T07:50:23.763Z,97
2022-12-18T07:55:29.883Z,97.5
2022-12-18T08:00:36.035Z,97.5
2022-12-18T08:05:42.265Z,96.5
2022-12-18T08:10:48.244Z,97.5
2022-12-18T08:15:54.377Z,96.5
2022-12-18T08:21:00.480Z,96.5
2022-12-18T08:26:06.620Z,96.5
2022-12-18T08:31:12.725Z,96.5
2022-12-18T08:36:18.853Z,97
2022-12-18T09:52:16.916Z,96
2022-12-18T09:57:23.061Z,95.5
2022-12-18T10:02:29.161Z,95.5
2022-12-18T10:07:35.288Z,94.5
2022-12-18T10:12:41.397Z,95
2022-12-18T10:17:47.518Z,95
2022-12-18T10:22:53.651Z,94.5
2022-12-18T10:27:59.789Z,94
2022-12-18T10:33:05.892Z,94
2022-12-18T10:38:12.000Z,94.5
2022-12-18T10:43:18.124Z,94.5
2022-12-18T10:48:24.228Z,93.5
2022-12-18T10:53:30.461Z,93.5
2022-12-18T10:58:36.468Z,94
2022-12-18T11:03:42.575Z,92
2022-12-18T11:08:48.694Z,93
2022-12-18T11:13:54.828Z,92.5
2022-12-18T11:19:00.945Z,92.5
2022-12-18T11:24:07.064Z,92
2022-12-18T11:29:13.172Z,92
2022-12-18T11:34:18.659Z,92
2022-12-18T11:39:23.448Z,91.5
2022-12-18T11:44:29.563Z,92.5
2022-12-18T11:49:35.688Z,92
2022-12-18T11:54:41.805Z,91.5
2022-12-18T11:59:47.921Z,91
2022-12-18T12:04:54.039Z,93
2022-12-18T12:10:00.139Z,93.5
2022-12-18T12:15:06.281Z,93.5
2022-12-18T12:20:12.386Z,95
2022-12-18T12:25:18.514Z,94.5
2022-12-18T12:30:24.640Z,93.5
2022-12-18T12:35:30.728Z,94.5
2022-12-18T12:40:36.861Z,94
2022-12-18T12:45:42.160Z,93.5
2022-12-18T12:50:48.117Z,94
2022-12-18T12:55:54.374Z,94.5
2022-12-18T13:01:00.492Z,94.5
2022-12-18T13:06:06.626Z,95.5
2022-12-18T13:11:12.578Z,95
2022-12-18T13:16:18.742Z,96
2022-12-18T13:21:23.918Z,96.5
2022-12-18T13:26:29.137Z,97
2022-12-18T13:31:35.242Z,96.5
2022-12-18T13:36:41.234Z,96.5
2022-12-18T13:41:47.325Z,96.5
2022-12-18T13:46:53.446Z,96.5
2022-12-18T13:51:59.557Z,97
2022-12-18T13:57:05.742Z,97.5
2022-12-18T14:02:11.891Z,97.5
2022-12-18T14:07:17.906Z,98.5
2022-12-18T14:12:24.057Z,99
2022-12-18T14:17:30.153Z,99
2022-12-18T14:22:36.265Z,99.5
2022-12-18T14:27:42.366Z,99.5
2022-12-18T14:32:47.516Z,99.5
2022-12-18T14:37:53.645Z,99.5
2022-12-18T14:42:59.760Z,99.5
2022-12-18T14:48:05.866Z,99.5
2022-12-18T14:53:11.994Z,99.5
2022-12-18T14:58:18.114Z,99.5
2022-12-18T15:03:24.237Z,99.5
2022-12-18T15:08:29.386Z,99
2022-12-18T15:13:34.507Z,99.5
2022-12-18T15:18:40.657Z,99.5
2022-12-18T15:23:46.772Z,99.5
2022-12-18T15:28:52.862Z,99.5
2022-12-18T15:33:58.984Z,99.5
2022-12-18T15:39:05.112Z,99.5
2022-12-18T15:44:11.231Z,99.5
2022-12-18T15:49:17.357Z,99.5
2022-12-18T15:54:23.471Z,99.5
2022-12-18T15:59:29.613Z,99.5
2022-12-18T16:04:35.712Z,99.5
2022-12-18T16:09:41.861Z,99.5
2022-12-18T16:14:48.020Z,99.5
2022-12-18T16:19:53.101Z,99.5
2022-12-18T16:24:59.223Z,99.5
2022-12-18T16:30:05.330Z,99.5
2022-12-18T16:35:11.455Z,99.5
2022-12-18T16:40:17.568Z,99.5
2022-12-18T16:45:23.699Z,99.5
2022-12-18T16:50:29.823Z,99.5
2022-12-18T16:55:34.960Z,99
2022-12-18T17:00:40.122Z,99.5
2022-12-18T17:05:45.253Z,99
2022-12-18T17:10:50.380Z,99
2022-12-18T17:15:55.522Z,98.5
2022-12-18T17:21:00.640Z,98.5
2022-12-18T17:31:12.894Z,99
2022-12-18T17:36:19.022Z,98.5
2022-12-18T17:41:25.163Z,98.5
2022-12-18T17:46:31.265Z,98.5
2022-12-18T17:51:37.392Z,98.5
2022-12-18T18:01:49.608Z,98.5
2022-12-18T18:06:55.738Z,99
2022-12-18T18:12:01.854Z,99
2022-12-18T18:17:07.993Z,99
2022-12-18T18:22:13.226Z,98.5
2022-12-18T18:27:18.265Z,98.5
2022-12-18T18:32:23.399Z,98.5
2022-12-18T18:37:28.542Z,98.5
2022-12-18T18:42:34.677Z,98.5
2022-12-18T18:47:40.789Z,98.5
2022-12-18T18:52:46.906Z,98.5
2022-12-18T18:57:53.031Z,98.5
2022-12-18T19:02:59.141Z,98.5
2022-12-18T19:08:05.257Z,98
2022-12-18T19:13:11.394Z,98
2022-12-18T19:18:17.502Z,97.5
2022-12-18T19:23:23.635Z,97.5
2022-12-18T19:28:28.769Z,97.5
2022-12-18T19:33:33.925Z,97.5
2022-12-18T19:38:40.060Z,97.5
2022-12-18T19:43:46.154Z,97.5
2022-12-18T19:48:52.284Z,97.5
2022-12-18T19:53:58.405Z,97.5
2022-12-18T19:59:04.527Z,97.5
2022-12-18T20:04:10.672Z,97
2022-12-18T20:09:16.772Z,97
2022-12-18T20:14:22.865Z,97
2022-12-18T20:19:28.988Z,97
2022-12-18T20:24:35.120Z,97
2022-12-18T20:29:41.236Z,97
2022-12-18T20:34:47.350Z,97
2022-12-18T20:39:52.496Z,97
2022-12-18T20:44:58.614Z,96.5
2022-12-18T20:50:04.809Z,97
2022-12-18T20:55:10.836Z,97
2022-12-18T21:00:16.968Z,97
2022-12-18T21:05:23.077Z,97
2022-12-18T21:10:29.394Z,96.5
2022-12-18T21:15:34.335Z,97
2022-12-18T21:20:39.535Z,96.5
2022-12-18T21:25:45.583Z,96.5
2022-12-18T21:30:51.714Z,96.5
2022-12-18T21:35:57.826Z,96.5
2022-12-18T21:41:03.947Z,96.5
2022-12-18T21:46:10.067Z,96.5
2022-12-18T21:51:16.206Z,96.5
2022-12-18T21:56:22.314Z,96.5
2022-12-18T22:01:28.457Z,97
2022-12-18T22:06:34.563Z,97
2022-12-18T22:11:40.670Z,97
2022-12-18T22:16:46.837Z,97
2022-12-18T22:21:52.903Z,97
2022-12-18T22:26:58.076Z,97
2022-12-18T22:32:04.171Z,97
2022-12-18T22:37:10.287Z,96.5
2022-12-18T22:42:16.402Z,97
2022-12-18T22:47:22.992Z,96.5
2022-12-18T22:52:28.640Z,96.5
2022-12-18T22:57:34.752Z,96.5
2022-12-18T23:02:39.896Z,96
2022-12-18T23:07:45.027Z,96
2022-12-18T23:12:51.143Z,96
2022-12-18T23:17:57.262Z,95.5
2022-12-18T23:23:03.381Z,96
2022-12-18T23:28:09.492Z,96
2022-12-18T23:33:15.606Z,95.5
2022-12-18T23:38:21.736Z,94.5
2022-12-18T23:43:27.854Z,95.5
2022-12-18T23:48:33.972Z,95
2022-12-18T23:53:40.083Z,95
2022-12-18T23:58:46.196Z,95
